Time;durP1;ratioP1;P1;durP2;ratioP2;P2;SDS_P1;SDS_P2;PMS_P1;PMS_P2;Temp;Humidity;BMP_temperature;BMP_pressure;BME280_temperature;BME280_humidity;BME280_pressure;Samples;Min_cycle;Max_cycle;Signal;HPM_P1;HPM_P2
2022/08/25 00:02:13;;;;;;;2.88;1.83;;;25.60;56.20;;;;;;6241708;23;20007;-68
2022/08/25 00:04:39;;;;;;;2.95;2.13;;;25.50;55.80;;;;;;6241759;23;20004;-68
2022/08/25 00:07:05;;;;;;;5.65;2.33;;;25.50;55.30;;;;;;6241874;23;20008;-68
2022/08/25 00:09:33;;;;;;;2.92;2.13;;;25.40;54.90;;;;;;6241255;23;20012;-68
2022/08/25 00:11:59;;;;;;;2.72;1.92;;;25.40;54.50;;;;;;6242052;23;20429;-69
2022/08/25 00:14:32;;;;;;;2.63;1.80;;;25.40;54.40;;;;;;6241656;23;20001;-68
2022/08/25 00:16:57;;;;;;;3.30;2.00;;;25.40;54.30;;;;;;6241714;23;20061;-68
2022/08/25 00:19:29;;;;;;;2.47;1.85;;;25.40;54.20;;;;;;6241913;23;20004;-67
2022/08/25 00:21:55;;;;;;;3.53;2.30;;;25.40;54.00;;;;;;6241709;23;20004;-68
2022/08/25 00:24:21;;;;;;;2.55;1.92;;;25.40;54.00;;;;;;6241985;23;20046;-67
2022/08/25 00:26:49;;;;;;;2.33;2.10;;;25.40;53.80;;;;;;6240916;23;20532;-65
2022/08/25 00:29:16;;;;;;;2.92;1.98;;;25.40;53.60;;;;;;6241378;23;20000;-67
2022/08/25 00:31:42;;;;;;;4.05;2.00;;;25.40;53.50;;;;;;6241448;23;20310;-66
2022/08/25 00:34:14;;;;;;;4.43;2.50;;;25.40;53.60;;;;;;6241372;23;20007;-69
2022/08/25 00:36:41;;;;;;;3.00;2.47;;;25.30;53.30;;;;;;6241770;23;20001;-69
2022/08/25 00:39:08;;;;;;;2.85;1.90;;;25.30;53.30;;;;;;6241247;23;20000;-69
2022/08/25 00:41:34;;;;;;;3.83;2.30;;;25.40;53.40;;;;;;6241751;23;20421;-69
2022/08/25 00:44:04;;;;;;;3.35;2.25;;;25.40;53.30;;;;;;6242173;23;20342;-69
2022/08/25 00:46:34;;;;;;;3.22;2.25;;;25.40;53.20;;;;;;6241191;23;20421;-69
2022/08/25 00:49:04;;;;;;;2.78;1.90;;;25.40;53.10;;;;;;6241817;23;19997;-69
2022/08/25 00:51:46;;;;;;;4.70;2.05;;;25.40;53.10;;;;;;6241249;23;20019;-69
2022/08/25 00:54:37;;;;;;;3.10;2.30;;;25.40;53.70;;;;;;6241674;23;20000;-70
2022/08/25 00:57:05;;;;;;;3.35;1.95;;;25.40;52.90;;;;;;6227787;23;20517;-70
2022/08/25 00:59:31;;;;;;;4.57;2.20;;;25.40;52.90;;;;;;6239738;23;20000;-69
2022/08/25 01:01:58;;;;;;;2.20;2.00;;;25.30;52.80;;;;;;6241581;23;20318;-71
2022/08/25 01:04:24;;;;;;;2.67;1.90;;;25.30;52.90;;;;;;6240624;23;20081;-71
2022/08/25 01:06:50;;;;;;;3.55;2.10;;;25.30;52.80;;;;;;6241252;23;20008;-70
2022/08/25 01:09:17;;;;;;;5.28;2.25;;;25.30;52.60;;;;;;6240186;23;20003;-71
2022/08/25 01:11:45;;;;;;;3.40;2.03;;;25.30;52.60;;;;;;6240655;23;20004;-71
2022/08/25 01:14:14;;;;;;;2.90;1.90;;;25.20;52.40;;;;;;6243334;23;20067;-70
2022/08/25 01:16:42;;;;;;;6.97;2.75;;;25.10;52.50;;;;;;6242915;23;20026;-71
2022/08/25 01:19:11;;;;;;;4.05;2.20;;;25.10;52.30;;;;;;6243682;23;20000;-69
2022/08/25 01:21:40;;;;;;;3.55;2.30;;;25.10;52.20;;;;;;6243350;23;20007;-70
2022/08/25 01:24:05;;;;;;;2.67;2.03;;;25.00;52.20;;;;;;6243223;23;20004;-68
2022/08/25 01:26:33;;;;;;;2.15;1.95;;;25.00;52.10;;;;;;6243276;23;20014;-70
2022/08/25 01:29:20;;;;;;;3.55;2.10;;;25.00;52.10;;;;;;6243485;23;20369;-71
2022/08/25 01:31:47;;;;;;;4.00;2.33;;;25.00;52.10;;;;;;6243729;23;20017;-68
2022/08/25 01:34:15;;;;;;;3.65;2.30;;;24.90;51.90;;;;;;6243485;23;20004;-70
2022/08/25 01:36:43;;;;;;;3.92;2.28;;;24.90;51.80;;;;;;6243455;23;20008;-70
2022/08/25 01:39:09;;;;;;;4.10;2.30;;;24.90;51.60;;;;;;6243267;23;20008;-69
2022/08/25 01:41:57;;;;;;;5.22;2.00;;;24.90;51.60;;;;;;6242629;23;20433;-69
2022/08/25 01:44:24;;;;;;;4.57;2.40;;;24.90;51.50;;;;;;6242966;23;20004;-69
2022/08/25 01:46:51;;;;;;;2.72;1.85;;;24.90;51.30;;;;;;6242780;23;20000;-70
2022/08/25 01:49:16;;;;;;;2.88;2.15;;;24.90;51.30;;;;;;6243008;23;20000;-68
2022/08/25 01:51:49;;;;;;;2.60;2.30;;;24.90;51.10;;;;;;6242755;23;20559;-70
2022/08/25 01:54:15;;;;;;;4.57;2.50;;;24.90;51.10;;;;;;6240848;23;20047;-69
2022/08/25 01:56:41;;;;;;;3.92;2.25;;;24.90;51.00;;;;;;6242918;23;20004;-70
2022/08/25 01:59:06;;;;;;;2.13;1.90;;;24.90;51.10;;;;;;6242648;23;20058;-69
2022/08/25 02:01:33;;;;;;;3.70;2.17;;;24.90;51.10;;;;;;6242284;23;20103;-69
2022/08/25 02:03:58;;;;;;;4.00;2.22;;;24.90;51.00;;;;;;6243075;23;20028;-69
2022/08/25 02:06:31;;;;;;;3.38;2.13;;;24.90;50.90;;;;;;6242208;23;20004;-70
2022/08/25 02:08:59;;;;;;;3.47;1.90;;;24.90;50.90;;;;;;6243156;23;20002;-71
2022/08/25 02:11:26;;;;;;;3.30;1.80;;;24.90;50.80;;;;;;6242604;23;20057;-69
2022/08/25 02:13:52;;;;;;;3.47;1.88;;;25.00;50.60;;;;;;6242889;23;20429;-69
2022/08/25 02:16:23;;;;;;;3.67;1.98;;;25.00;50.50;;;;;;6242740;23;20062;-68
2022/08/25 02:18:48;;;;;;;2.23;2.03;;;25.00;50.30;;;;;;6242735;23;20008;-69
2022/08/25 02:21:14;;;;;;;3.80;2.30;;;25.00;50.20;;;;;;6242889;23;20227;-69
2022/08/25 02:23:40;;;;;;;4.57;2.20;;;25.00;50.00;;;;;;6241939;23;20430;-68
2022/08/25 02:26:07;;;;;;;3.80;2.17;;;25.00;49.90;;;;;;6240988;23;20083;-68
2022/08/25 02:28:33;;;;;;;3.05;2.00;;;25.00;49.80;;;;;;6242733;23;20004;-68
2022/08/25 02:30:59;;;;;;;4.85;1.90;;;25.00;49.70;;;;;;6241862;23;20018;-69
2022/08/25 02:33:25;;;;;;;3.88;2.70;;;25.00;49.40;;;;;;6242832;23;20011;-68
2022/08/25 02:35:50;;;;;;;3.63;2.17;;;25.10;48.80;;;;;;6242091;23;20099;-70
2022/08/25 02:38:17;;;;;;;3.95;2.33;;;25.10;48.60;;;;;;6242608;23;20075;-70
2022/08/25 02:40:43;;;;;;;3.03;1.85;;;25.10;48.50;;;;;;6242614;23;20075;-70
2022/08/25 02:43:08;;;;;;;3.17;2.00;;;25.10;48.40;;;;;;6242095;23;20028;-70
2022/08/25 02:45:35;;;;;;;2.22;2.00;;;25.10;48.40;;;;;;6242469;23;20333;-69
2022/08/25 02:48:01;;;;;;;4.90;2.10;;;25.20;48.50;;;;;;6242380;23;20006;-69
2022/08/25 02:50:27;;;;;;;3.65;2.00;;;25.20;48.30;;;;;;6242381;23;20000;-70
2022/08/25 02:52:53;;;;;;;2.20;2.00;;;25.20;48.30;;;;;;6239684;23;20507;-70
2022/08/25 02:55:20;;;;;;;3.03;2.00;;;25.20;48.20;;;;;;6241203;22;20004;-70
2022/08/25 02:57:47;;;;;;;4.35;2.22;;;25.30;48.80;;;;;;6242514;23;20449;-69
2022/08/25 03:00:14;;;;;;;3.65;2.25;;;25.20;48.10;;;;;;6242143;23;20008;-69
2022/08/25 03:02:43;;;;;;;4.35;1.90;;;25.10;48.10;;;;;;6242642;23;20007;-70
2022/08/25 03:05:11;;;;;;;2.97;2.10;;;25.10;48.30;;;;;;6242387;23;20004;-69
2022/08/25 03:07:37;;;;;;;3.25;1.83;;;25.10;48.40;;;;;;6241654;23;20000;-69
2022/08/25 03:10:13;;;;;;;2.35;1.63;;;25.00;48.50;;;;;;6242084;23;19996;-70
2022/08/25 03:12:40;;;;;;;4.03;2.00;;;25.00;48.60;;;;;;6242085;23;20491;-69
2022/08/25 03:15:08;;;;;;;4.70;2.20;;;24.90;48.60;;;;;;6241949;23;20008;-70
2022/08/25 03:17:33;;;;;;;2.78;1.85;;;24.90;48.80;;;;;;6242531;23;20012;-68
2022/08/25 03:19:59;;;;;;;3.85;2.20;;;24.80;49.00;;;;;;6241832;23;20355;-68
2022/08/25 03:22:24;;;;;;;2.58;2.00;;;24.80;49.00;;;;;;6242284;23;20019;-69
2022/08/25 03:24:50;;;;;;;3.25;2.08;;;24.70;49.10;;;;;;6241635;23;20008;-69
2022/08/25 03:27:16;;;;;;;5.00;3.13;;;24.60;49.30;;;;;;6242092;23;20008;-71
2022/08/25 03:29:42;;;;;;;9.88;4.38;;;24.60;49.30;;;;;;6242130;23;19996;-67
2022/08/25 03:32:08;;;;;;;3.30;2.42;;;24.60;49.50;;;;;;6242266;23;20000;-67
2022/08/25 03:34:33;;;;;;;3.83;2.40;;;24.60;49.50;;;;;;6242013;23;20023;-67
2022/08/25 03:36:59;;;;;;;4.70;2.35;;;24.50;49.60;;;;;;6241736;23;20000;-69
2022/08/25 03:39:25;;;;;;;2.55;2.10;;;24.50;49.70;;;;;;6242106;23;20012;-69
2022/08/25 03:41:52;;;;;;;4.68;2.35;;;24.40;49.80;;;;;;6242645;23;20007;-70
2022/08/25 03:44:19;;;;;;;4.43;2.53;;;24.40;50.00;;;;;;6242029;23;20522;-67
2022/08/25 03:46:49;;;;;;;4.40;2.42;;;24.30;49.90;;;;;;6242096;23;20081;-69
2022/08/25 03:49:18;;;;;;;3.95;2.72;;;24.30;50.10;;;;;;6242064;23;20004;-69
2022/08/25 03:51:47;;;;;;;3.63;2.10;;;24.30;50.00;;;;;;6241825;23;19996;-70
2022/08/25 03:54:14;;;;;;;4.35;2.30;;;24.30;50.00;;;;;;6242060;22;20443;-69
2022/08/25 03:56:40;;;;;;;2.75;2.10;;;24.30;50.10;;;;;;6240173;22;20030;-70
2022/08/25 03:59:08;;;;;;;2.85;2.50;;;24.20;50.20;;;;;;6241749;23;20000;-68
2022/08/25 04:01:35;;;;;;;3.40;2.45;;;24.20;50.40;;;;;;6241547;23;20079;-68
2022/08/25 04:04:01;;;;;;;3.25;2.45;;;24.10;50.60;;;;;;6241591;23;20004;-66
2022/08/25 04:06:26;;;;;;;2.65;2.25;;;24.10;50.70;;;;;;6241745;23;20027;-68
2022/08/25 04:08:52;;;;;;;3.58;2.30;;;24.10;50.80;;;;;;6241395;23;20699;-69
2022/08/25 04:11:21;;;;;;;3.25;2.30;;;24.10;51.00;;;;;;6242063;23;20004;-68
2022/08/25 04:13:47;;;;;;;3.30;2.33;;;24.00;51.00;;;;;;6240937;23;20063;-68
2022/08/25 04:16:16;;;;;;;3.03;2.40;;;24.00;51.10;;;;;;6241275;23;20004;-67
2022/08/25 04:18:42;;;;;;;4.15;2.17;;;24.00;51.20;;;;;;6240739;23;20425;-66
2022/08/25 04:21:10;;;;;;;2.45;2.15;;;23.90;51.30;;;;;;6239246;23;20004;-67
2022/08/25 04:23:37;;;;;;;3.90;2.50;;;23.90;51.40;;;;;;6241207;23;20396;-68
2022/08/25 04:26:12;;;;;;;4.68;2.40;;;23.80;51.40;;;;;;6241707;23;20007;-68
2022/08/25 04:28:37;;;;;;;4.30;2.50;;;23.80;51.50;;;;;;6240989;23;20452;-67
2022/08/25 04:31:13;;;;;;;5.72;2.63;;;23.80;51.50;;;;;;6241232;23;20077;-67
2022/08/25 04:33:39;;;;;;;6.10;2.70;;;23.70;51.50;;;;;;6240888;23;20004;-67
2022/08/25 04:36:06;;;;;;;4.65;2.65;;;23.70;51.60;;;;;;6241613;23;20007;-67
2022/08/25 04:38:32;;;;;;;2.38;2.10;;;23.70;51.70;;;;;;6240559;23;20083;-67
2022/08/25 04:41:01;;;;;;;5.07;2.65;;;23.70;51.70;;;;;;6241225;23;20000;-67
2022/08/25 04:43:28;;;;;;;8.85;3.10;;;23.70;51.80;;;;;;6241556;23;20007;-67
2022/08/25 04:45:54;;;;;;;3.53;2.60;;;23.60;51.80;;;;;;6241118;23;20000;-68
2022/08/25 04:48:20;;;;;;;5.00;2.80;;;23.60;51.80;;;;;;6243517;23;19996;-67
2022/08/25 04:50:46;;;;;;;5.57;2.40;;;23.60;51.90;;;;;;6242285;23;20000;-67
2022/08/25 04:53:12;;;;;;;4.22;2.67;;;23.60;52.00;;;;;;6242082;23;20340;-66
2022/08/25 04:55:46;;;;;;;4.90;2.78;;;23.60;52.00;;;;;;6243168;23;20001;-68
2022/08/25 04:58:14;;;;;;;3.83;2.63;;;23.50;52.10;;;;;;6242382;23;20034;-67
2022/08/25 05:00:40;;;;;;;4.43;2.85;;;23.40;52.40;;;;;;6243394;23;20000;-68
2022/08/25 05:03:07;;;;;;;5.90;2.90;;;23.40;52.60;;;;;;6243152;23;19996;-66
2022/08/25 05:05:35;;;;;;;5.28;2.90;;;23.30;52.60;;;;;;6242671;23;20003;-66
2022/08/25 05:08:01;;;;;;;4.53;2.90;;;23.30;52.80;;;;;;6243653;23;19996;-68
2022/08/25 05:10:26;;;;;;;4.93;2.67;;;23.30;52.80;;;;;;6243455;23;20000;-67
2022/08/25 05:12:52;;;;;;;4.57;2.53;;;23.30;52.80;;;;;;6242553;23;20451;-67
2022/08/25 05:18:02;;;;;;;5.22;2.90;;;23.30;53.00;;;;;;6243291;23;20018;-67
2022/08/25 05:20:29;;;;;;;4.13;2.72;;;23.30;53.00;;;;;;6243580;23;20027;-68
2022/08/25 05:22:55;;;;;;;4.82;2.83;;;23.30;53.00;;;;;;6243379;23;20460;-68
2022/08/25 05:25:21;;;;;;;4.82;3.05;;;23.30;53.10;;;;;;6242961;23;20015;-67
2022/08/25 05:27:46;;;;;;;5.18;2.92;;;23.30;53.10;;;;;;6243271;23;20004;-66
2022/08/25 05:30:12;;;;;;;6.95;3.00;;;23.30;53.20;;;;;;6243110;23;20511;-68
2022/08/25 05:32:38;;;;;;;4.80;2.67;;;23.20;53.20;;;;;;6243441;23;20007;-68
2022/08/25 05:35:04;;;;;;;3.90;2.63;;;23.80;52.60;;;;;;6243540;23;20073;-66
2022/08/25 05:37:30;;;;;;;3.95;2.75;;;24.50;51.20;;;;;;6241694;23;20000;-67
2022/08/25 05:39:56;;;;;;;4.07;2.30;;;25.20;49.60;;;;;;6242202;23;20011;-67
2022/08/25 05:42:22;;;;;;;4.50;2.40;;;25.90;48.60;;;;;;6243032;23;20430;-66
2022/08/25 05:44:47;;;;;;;3.42;2.47;;;26.30;47.30;;;;;;6242935;23;20000;-66
2022/08/25 05:47:13;;;;;;;5.35;2.70;;;26.60;46.50;;;;;;6243432;23;20444;-69
2022/08/25 05:49:38;;;;;;;3.25;2.42;;;26.70;46.00;;;;;;6243076;23;20314;-67
2022/08/25 05:52:04;;;;;;;3.75;2.60;;;26.10;46.10;;;;;;6242660;23;20481;-67
2022/08/25 05:54:30;;;;;;;3.00;2.00;;;25.60;47.40;;;;;;6243406;23;20079;-66
2022/08/25 05:56:56;;;;;;;5.07;2.97;;;25.30;48.30;;;;;;6243038;23;20010;-65
2022/08/25 05:59:22;;;;;;;6.80;2.90;;;25.00;48.80;;;;;;6242276;23;20396;-66
2022/08/25 06:04:32;;;;;;;3.83;2.40;;;24.60;49.70;;;;;;6242918;23;20019;-66
2022/08/25 06:06:58;;;;;;;3.35;2.58;;;24.50;50.00;;;;;;6242442;23;20004;-67
2022/08/25 06:09:24;;;;;;;5.97;2.85;;;25.00;49.80;;;;;;6241483;23;20333;-68
2022/08/25 06:11:50;;;;;;;4.10;2.30;;;26.10;48.00;;;;;;6243174;23;20529;-67
2022/08/25 06:14:16;;;;;;;3.50;2.30;;;27.10;46.10;;;;;;6242046;23;20007;-66
2022/08/25 06:16:41;;;;;;;4.32;2.45;;;27.80;44.60;;;;;;6241455;23;20506;-68
2022/08/25 06:19:09;;;;;;;4.05;2.83;;;28.60;43.40;;;;;;6242296;23;20000;-66
2022/08/25 06:21:36;;;;;;;2.97;2.30;;;28.90;42.40;;;;;;6242707;23;20004;-66
2022/08/25 06:24:01;;;;;;;4.03;2.40;;;29.20;41.80;;;;;;6242612;23;20000;-67
2022/08/25 06:26:27;;;;;;;5.30;2.70;;;29.60;41.20;;;;;;6241941;23;20058;-67
2022/08/25 06:28:53;;;;;;;3.83;2.53;;;30.10;40.50;;;;;;6242705;23;19997;-67
2022/08/25 06:31:21;;;;;;;5.15;2.20;;;30.40;39.90;;;;;;6240063;23;20086;-68
2022/08/25 06:33:47;;;;;;;2.80;2.10;;;30.60;39.60;;;;;;6241584;23;20000;-67
2022/08/25 06:36:14;;;;;;;2.70;2.30;;;31.00;39.40;;;;;;6242293;23;20000;-68
2022/08/25 06:38:40;;;;;;;4.68;2.30;;;31.30;38.50;;;;;;6242316;22;20032;-68
2022/08/25 06:41:07;;;;;;;2.17;1.95;;;31.60;38.30;;;;;;6242266;23;20011;-67
2022/08/25 06:43:33;;;;;;;3.78;2.20;;;32.30;37.90;;;;;;6241798;22;20452;-68
2022/08/25 06:46:12;;;;;;;2.10;1.90;;;32.60;37.10;;;;;;6240929;23;20004;-68
2022/08/25 06:48:38;;;;;;;4.20;2.67;;;32.70;36.90;;;;;;6240544;23;20004;-68
2022/08/25 06:51:08;;;;;;;2.50;2.15;;;32.60;35.90;;;;;;6240809;23;20011;-68
2022/08/25 06:53:34;;;;;;;4.25;2.20;;;32.60;36.40;;;;;;6240304;23;19996;-69
2022/08/25 06:56:00;;;;;;;4.05;2.30;;;33.00;36.30;;;;;;6240709;23;20014;-67
2022/08/25 06:58:26;;;;;;;3.20;2.47;;;33.00;35.80;;;;;;6241954;23;20050;-67
2022/08/25 07:00:52;;;;;;;4.85;2.35;;;33.20;35.70;;;;;;6241666;23;20004;-69
2022/08/25 07:03:17;;;;;;;4.75;2.40;;;33.20;35.60;;;;;;6241703;23;20012;-69
2022/08/25 07:05:53;;;;;;;2.83;1.83;;;33.70;35.50;;;;;;6241509;23;20451;-68
2022/08/25 07:08:19;;;;;;;4.15;2.50;;;34.40;35.00;;;;;;6242532;23;20079;-69
2022/08/25 07:10:45;;;;;;;4.32;2.10;;;34.10;34.30;;;;;;6241528;23;20208;-69
2022/08/25 07:13:11;;;;;;;3.75;2.25;;;34.20;34.70;;;;;;6242541;23;20317;-68
2022/08/25 07:15:41;;;;;;;3.88;2.05;;;34.30;34.60;;;;;;6242000;23;20006;-68
2022/08/25 07:18:07;;;;;;;3.45;2.42;;;34.90;34.40;;;;;;6241370;23;20000;-68
2022/08/25 07:20:34;;;;;;;3.00;2.00;;;34.60;34.00;;;;;;6242497;23;20035;-68
2022/08/25 07:23:03;;;;;;;4.03;2.30;;;34.50;34.30;;;;;;6241295;23;20083;-68
2022/08/25 07:25:29;;;;;;;4.72;2.35;;;34.80;34.10;;;;;;6237217;23;20043;-68
2022/08/25 07:27:55;;;;;;;3.78;2.20;;;35.10;33.50;;;;;;6240659;23;20004;-68
2022/08/25 07:30:22;;;;;;;3.67;2.30;;;35.20;33.50;;;;;;6240215;23;20053;-67
2022/08/25 07:32:47;;;;;;;4.13;2.20;;;35.20;33.30;;;;;;6238679;23;20027;-68
2022/08/25 07:35:16;;;;;;;3.17;2.20;;;35.40;33.40;;;;;;6237902;23;20027;-67
2022/08/25 07:37:50;;;;;;;2.92;1.90;;;35.80;33.20;;;;;;6239999;23;20003;-68
2022/08/25 07:40:21;;;;;;;3.55;2.30;;;36.20;32.90;;;;;;6238980;22;20101;-68
2022/08/25 07:42:48;;;;;;;;;;;36.20;32.50;;;;;;6239580;23;20337;-67
2022/08/25 07:45:14;;;;;;;5.10;2.17;;;36.10;32.40;;;;;;6238229;22;19899;-68
2022/08/25 07:47:40;;;;;;;1.83;1.65;;;36.30;32.60;;;;;;6239717;23;20095;-68
2022/08/25 07:50:08;;;;;;;2.50;1.80;;;36.70;32.50;;;;;;6240098;23;20031;-67
2022/08/25 07:52:33;;;;;;;3.70;2.00;;;37.10;32.20;;;;;;6238786;23;20007;-66
2022/08/25 07:54:59;;;;;;;5.25;2.30;;;37.10;31.80;;;;;;6237368;23;20012;-68
2022/08/25 07:57:25;;;;;;;3.55;2.20;;;36.90;31.50;;;;;;6239222;23;20000;-68
2022/08/25 07:59:51;;;;;;;2.83;1.90;;;36.60;31.70;;;;;;6238274;23;20008;-67
2022/08/25 08:02:17;;;;;;;5.63;2.65;;;36.40;32.30;;;;;;6238839;23;20011;-67
2022/08/25 08:04:44;;;;;;;3.72;2.10;;;36.20;31.90;;;;;;6239022;23;20336;-67
2022/08/25 08:07:10;;;;;;;6.68;2.63;;;36.20;32.40;;;;;;6240434;23;20004;-67
2022/08/25 08:09:36;;;;;;;4.55;2.38;;;36.00;32.50;;;;;;6240410;23;20452;-67
2022/08/25 08:12:04;;;;;;;6.75;2.20;;;35.80;32.60;;;;;;6240059;23;20561;-67
2022/08/25 08:14:29;;;;;;;3.53;2.00;;;35.50;33.50;;;;;;6238645;23;20003;-67
2022/08/25 08:16:55;;;;;;;3.40;2.20;;;35.50;33.20;;;;;;6240519;23;20012;-68
2022/08/25 08:19:21;;;;;;;3.63;2.10;;;35.40;33.40;;;;;;6239496;23;20011;-66
2022/08/25 08:21:47;;;;;;;4.35;2.10;;;35.30;34.20;;;;;;6237611;23;20345;-66
2022/08/25 08:24:13;;;;;;;2.65;2.10;;;35.00;33.90;;;;;;6238407;23;20449;-66
2022/08/25 08:26:38;;;;;;;3.35;2.40;;;34.90;34.20;;;;;;6237716;23;20004;-66
2022/08/25 08:29:04;;;;;;;4.20;2.40;;;34.30;34.70;;;;;;6238767;23;20314;-67
2022/08/25 08:31:29;;;;;;;3.40;2.42;;;34.30;35.10;;;;;;6239439;23;20378;-67
2022/08/25 08:33:56;;;;;;;3.45;2.38;;;34.10;35.20;;;;;;6238364;23;20058;-66
2022/08/25 08:36:22;;;;;;;4.57;2.20;;;33.90;35.50;;;;;;6239351;23;20004;-67
2022/08/25 08:38:48;;;;;;;5.15;2.42;;;33.60;36.20;;;;;;6239513;23;20709;-67
2022/08/25 08:44:30;;;;;;;5.32;2.15;;;33.00;37.00;;;;;;6237848;23;20039;-67
2022/08/25 08:47:09;;;;;;;3.58;2.10;;;33.00;37.50;;;;;;6237315;23;20472;-68
2022/08/25 08:50:12;;;;;;;3.90;2.22;;;32.90;37.70;;;;;;6236692;23;20000;-67
2022/08/25 08:52:45;;;;;;;6.85;2.50;;;32.30;38.10;;;;;;6237137;23;20214;-67
2022/08/25 08:55:49;;;;;;;3.55;2.03;;;31.80;38.70;;;;;;6238853;23;20000;-68
2022/08/25 08:58:20;;;;;;;3.78;2.05;;;31.50;39.10;;;;;;6239510;23;20000;-68
2022/08/25 09:00:51;;;;;;;4.05;2.58;;;31.50;39.40;;;;;;6239789;22;20036;-67
2022/08/25 09:03:39;;;;;;;3.63;2.67;;;31.20;39.60;;;;;;6240208;23;19996;-66
2022/08/25 09:06:18;;;;;;;3.63;2.30;;;30.80;39.70;;;;;;6239673;23;20000;-66
2022/08/25 09:08:44;;;;;;;5.30;2.90;;;30.60;40.30;;;;;;6238269;23;20000;-67
2022/08/25 09:11:37;;;;;;;3.20;2.40;;;30.50;40.40;;;;;;6239725;23;20003;-67
2022/08/25 09:14:20;;;;;;;5.78;2.50;;;30.50;40.70;;;;;;6237426;23;20003;-67
2022/08/25 09:17:01;;;;;;;3.35;2.30;;;30.50;40.60;;;;;;6237717;23;20008;-67
2022/08/25 09:19:53;;;;;;;5.18;2.60;;;30.50;40.70;;;;;;6239150;23;20844;-67
2022/08/25 09:22:27;;;;;;;5.28;2.47;;;30.40;40.40;;;;;;6240067;23;20000;-68
2022/08/25 09:25:09;;;;;;;4.13;2.30;;;30.40;40.50;;;;;;6238239;23;20010;-67
2022/08/25 09:27:46;;;;;;;4.03;2.25;;;30.40;40.50;;;;;;6238964;23;20004;-67
2022/08/25 09:30:17;;;;;;;3.28;2.30;;;30.50;40.50;;;;;;6238879;23;20000;-68
2022/08/25 09:32:52;;;;;;;5.18;2.55;;;30.70;40.50;;;;;;6237904;23;20031;-67
2022/08/25 09:35:26;;;;;;;3.70;2.35;;;30.70;40.20;;;;;;6238783;23;20107;-68
2022/08/25 09:37:59;;;;;;;3.85;2.20;;;30.80;40.00;;;;;;6240832;23;20011;-67
2022/08/25 09:40:27;;;;;;;4.53;2.53;;;30.70;39.80;;;;;;6240952;23;20008;-68
2022/08/25 09:42:56;;;;;;;4.82;2.33;;;30.80;39.60;;;;;;6239085;23;20014;-67
2022/08/25 09:45:43;;;;;;;4.75;2.55;;;30.80;39.60;;;;;;6239807;23;20031;-67
2022/08/25 09:48:26;;;;;;;3.42;2.30;;;30.80;39.40;;;;;;6240788;23;20061;-67
2022/08/25 09:50:59;;;;;;;3.00;2.08;;;30.90;39.20;;;;;;6240611;23;20491;-67
2022/08/25 09:53:27;;;;;;;3.58;2.30;;;31.00;38.80;;;;;;6240244;23;20003;-67
2022/08/25 09:55:59;;;;;;;3.97;2.45;;;31.10;38.70;;;;;;6240898;23;20342;-68
2022/08/25 09:58:24;;;;;;;2.67;2.22;;;31.00;38.70;;;;;;6240170;23;20007;-68
2022/08/25 10:01:15;;;;;;;3.28;2.10;;;30.90;38.70;;;;;;6240683;23;20024;-67
2022/08/25 10:03:59;;;;;;;4.03;2.20;;;31.00;38.80;;;;;;6229330;22;20093;-68
2022/08/25 10:06:29;;;;;;;3.10;2.40;;;31.00;38.00;;;;;;6241227;23;20609;-69
2022/08/25 10:08:59;;;;;;;3.55;2.08;;;31.00;38.50;;;;;;6241469;23;20000;-68
2022/08/25 10:11:42;;;;;;;2.80;1.90;;;31.00;38.80;;;;;;6241358;23;20000;-68
2022/08/25 10:14:15;;;;;;;2.90;2.40;;;31.10;38.70;;;;;;6240280;23;20000;-67
2022/08/25 10:16:41;;;;;;;2.67;2.20;;;31.20;38.50;;;;;;6241564;23;20004;-68
2022/08/25 10:19:10;;;;;;;5.00;2.30;;;31.30;39.20;;;;;;6241338;23;20000;-68
2022/08/25 10:21:39;;;;;;;3.55;2.40;;;31.40;38.50;;;;;;6240867;22;20022;-66
2022/08/25 10:24:07;;;;;;;2.33;2.10;;;31.50;37.90;;;;;;6239955;23;20011;-67
2022/08/25 10:27:00;;;;;;;4.05;2.25;;;31.50;38.00;;;;;;6240497;23;20032;-68
2022/08/25 10:29:33;;;;;;;2.20;2.00;;;31.60;37.80;;;;;;6241221;23;20079;-66
2022/08/25 10:32:33;;;;;;;4.25;1.80;;;31.80;37.90;;;;;;6240463;23;20039;-67
2022/08/25 10:35:06;;;;;;;4.03;2.00;;;31.90;37.70;;;;;;6156726;23;20012;-68
2022/08/25 10:37:37;;;;;;;2.72;2.28;;;32.00;37.00;;;;;;6241182;23;20425;-68
2022/08/25 10:40:22;;;;;;;2.53;1.98;;;32.00;36.40;;;;;;6240097;23;20015;-68
2022/08/25 10:42:56;;;;;;;2.97;1.80;;;32.10;36.10;;;;;;6240680;23;20456;-68
2022/08/25 10:45:42;;;;;;;4.28;1.75;;;32.10;36.40;;;;;;6238654;23;20000;-68
2022/08/25 10:48:25;;;;;;;3.17;1.67;;;32.20;36.20;;;;;;6240439;23;20008;-68
2022/08/25 10:50:50;;;;;;;2.78;2.00;;;32.40;36.00;;;;;;6240231;23;20004;-66
2022/08/25 10:53:55;;;;;;;2.70;1.85;;;32.40;35.40;;;;;;6240573;23;20409;-68
2022/08/25 10:56:30;;;;;;;3.42;1.90;;;32.50;35.10;;;;;;6193675;22;20022;-67
2022/08/25 10:59:26;;;;;;;2.70;1.70;;;32.60;34.70;;;;;;6240281;23;20360;-66
2022/08/25 11:02:11;;;;;;;3.05;1.80;;;32.50;34.30;;;;;;6238814;23;20015;-67
2022/08/25 11:05:04;;;;;;;3.15;2.38;;;32.60;34.20;;;;;;6239198;23;20027;-68
2022/08/25 11:07:41;;;;;;;4.07;1.83;;;32.50;33.70;;;;;;6239872;23;20007;-68
2022/08/25 11:10:12;;;;;;;2.03;1.80;;;32.50;33.70;;;;;;6240777;23;20024;-68
2022/08/25 11:12:50;;;;;;;2.75;1.90;;;32.50;33.00;;;;;;6239898;23;20455;-67
2022/08/25 11:15:25;;;;;;;4.18;1.70;;;32.40;32.90;;;;;;6239527;23;20079;-69
2022/08/25 11:17:57;;;;;;;1.63;1.52;;;32.60;33.10;;;;;;6240617;23;20008;-69
2022/08/25 11:20:32;;;;;;;2.67;1.75;;;32.80;33.30;;;;;;6239043;23;20062;-68
2022/08/25 11:23:20;;;;;;;3.47;1.60;;;32.90;33.30;;;;;;6240070;23;20004;-68
2022/08/25 11:25:51;;;;;;;2.42;1.70;;;32.90;33.10;;;;;;6238557;23;20066;-67
2022/08/25 11:29:18;;;;;;;2.60;1.90;;;32.90;33.20;;;;;;6240479;23;20492;-68
2022/08/25 11:31:50;;;;;;;1.73;1.50;;;33.00;33.00;;;;;;6144107;23;20390;-67
2022/08/25 11:34:17;;;;;;;3.20;1.80;;;33.10;32.80;;;;;;6223010;23;20008;-68
2022/08/25 11:36:56;;;;;;;2.50;1.55;;;33.10;32.10;;;;;;6239376;23;20004;-68
2022/08/25 11:40:10;;;;;;;4.03;1.80;;;33.20;32.60;;;;;;6237198;23;20618;-68
2022/08/25 11:43:21;;;;;;;5.18;2.00;;;33.30;32.00;;;;;;6239280;23;20061;-68
2022/08/25 11:46:07;;;;;;;3.25;1.60;;;33.10;31.90;;;;;;6236500;23;20054;-68
2022/08/25 11:48:39;;;;;;;2.55;1.58;;;33.10;31.90;;;;;;6239330;23;20070;-67
2022/08/25 11:51:08;;;;;;;2.35;1.70;;;33.30;32.00;;;;;;6239254;23;20071;-68
2022/08/25 11:53:37;;;;;;;3.22;1.48;;;33.40;31.60;;;;;;6237166;23;19996;-68
2022/08/25 11:56:28;;;;;;;1.75;1.60;;;33.60;31.60;;;;;;6238118;23;20007;-68
2022/08/25 11:58:54;;;;;;;3.15;1.70;;;33.70;31.50;;;;;;6238166;23;20007;-69
2022/08/25 12:01:38;;;;;;;1.70;1.60;;;33.70;30.80;;;;;;6238501;23;20004;-67
2022/08/25 12:04:41;;;;;;;2.00;1.50;;;33.90;31.20;;;;;;6237979;23;20004;-68
2022/08/25 12:07:09;;;;;;;1.83;1.50;;;34.10;31.10;;;;;;6239162;23;20012;-68
2022/08/25 12:09:50;;;;;;;2.85;1.67;;;34.10;30.80;;;;;;6239647;23;20050;-68
2022/08/25 12:12:28;;;;;;;2.33;1.67;;;33.90;31.00;;;;;;6239108;23;20059;-68
2022/08/25 12:14:53;;;;;;;1.98;1.40;;;33.90;31.00;;;;;;6238269;23;20396;-65
2022/08/25 12:17:23;;;;;;;2.35;1.50;;;34.10;30.90;;;;;;6239094;23;20004;-69
2022/08/25 12:19:53;;;;;;;2.45;1.50;;;34.20;30.60;;;;;;6239036;23;20004;-68
2022/08/25 12:22:20;;;;;;;3.65;1.75;;;34.10;30.60;;;;;;6239514;23;20456;-68
2022/08/25 12:24:54;;;;;;;3.42;1.80;;;33.90;30.40;;;;;;6238469;23;20014;-68
2022/08/25 12:27:32;;;;;;;2.00;1.40;;;33.70;30.50;;;;;;6238994;23;20532;-68
2022/08/25 12:30:04;;;;;;;3.25;1.70;;;33.90;31.00;;;;;;6240043;23;20457;-69
2022/08/25 12:32:44;;;;;;;1.55;1.42;;;34.00;30.50;;;;;;6237265;23;20403;-68
2022/08/25 12:35:28;;;;;;;3.33;1.70;;;34.10;30.60;;;;;;6236765;23;20032;-67
2022/08/25 12:38:03;;;;;;;2.30;1.80;;;34.00;30.60;;;;;;6238336;23;20007;-69
2022/08/25 12:40:35;;;;;;;4.28;1.60;;;34.10;30.80;;;;;;6239171;23;20008;-68
2022/08/25 12:43:09;;;;;;;1.95;1.67;;;34.30;30.90;;;;;;6240178;23;20004;-68
2022/08/25 12:45:42;;;;;;;3.22;1.55;;;34.40;30.20;;;;;;6238206;23;20004;-68
2022/08/25 12:48:30;;;;;;;1.85;1.50;;;34.30;30.40;;;;;;6239994;23;20005;-68
2022/08/25 12:51:04;;;;;;;2.50;1.50;;;34.40;30.30;;;;;;6227366;23;20369;-68
2022/08/25 12:54:11;;;;;;;2.65;1.60;;;34.60;30.00;;;;;;6237314;23;20348;-68
2022/08/25 12:56:41;;;;;;;2.42;1.65;;;34.60;30.00;;;;;;6238181;23;20015;-69
2022/08/25 12:59:48;;;;;;;1.70;1.50;;;34.40;29.80;;;;;;6239633;23;20028;-68
2022/08/25 13:02:35;;;;;;;1.48;1.30;;;34.40;30.00;;;;;;6146836;23;20006;-67
2022/08/25 13:05:00;;;;;;;2.35;1.60;;;34.60;30.10;;;;;;6236081;22;20008;-69
2022/08/25 13:07:57;;;;;;;2.00;1.60;;;34.60;30.00;;;;;;6238238;23;20007;-67
2022/08/25 13:10:42;;;;;;;2.63;1.52;;;34.50;30.00;;;;;;6241274;23;20054;-68
2022/08/25 13:13:45;;;;;;;3.47;1.50;;;34.30;29.90;;;;;;6240477;23;20000;-67
2022/08/25 13:16:22;;;;;;;2.20;1.70;;;34.10;30.20;;;;;;6241436;23;20341;-67
2022/08/25 13:18:48;;;;;;;1.75;1.40;;;34.10;30.40;;;;;;6242071;23;20011;-68